Hovedside
METAR-TAF:

METAR-TAF

Lufthavner :

Vidsel, Sverige

breddegrad: 65-52N, lengdegrad: 020-08E, høyde over havet: 180 m

Gjeldene værobservasjon

Denne rapporten ble laget for 19 minutter siden, klokken 07:20 UTC
Vind 1 kt fra skiftende retning
Temperatur -4°C
Luftfuktighet 93%
Trykk 1029 hPa
Sikt 10 km eller mer
Få skyer i en høyde av 2200 ft
Brutte skyer i en høyde av 2700 ft

METAR: ESPE 240720Z VRB01KT 9999 FEW022 BKN027 M04/M05 Q1029

Tid: 09:39 (07:39 UTC)

Varsel

Denne rapporten ble laget for 2 timer og 39 minutter siden, klokken 05:00 UTC
Varsel gyldig fra 24. klokken 06 UTC til 24. klokken 14 UTC
Vind 2 kt fra skiftende retning
Sikt 10 km eller mer
Brutte skyer i en høyde av 2700 ft

TAF: ESPE 240500Z 2406/2414 VRB02KT 9999 BKN027 RMK MIL

Værobservasjoner og værvarsel for over 4000 flyplasser (METAR- og TAF-rapporter).

Tilgjengelige stasjoner er representert av de røde og gule prikkene på kartet.

Hold musepekeren over prikken for å se navnet på stasjonen.

Klikk så for å se værobservasjoner og -varsler.

For å forandre kartet kan du klikke på den grønne knappen med svart kryss for å zoome inn, på den grønne knappen med strek for å zoome ut, eller på de grønne pilene for å se tilstøtende kart.


METAR-TAF: